Flight Track Log - Related Links

Times and Time Zones

All times are in EDT time to prevent confusion due to time zone crossing. See the AWE1062 flight status page for this flight to view local times or setup timezone preferences in your user account.

Time Position Orientation Groundspeed Altitude Reporting Facility
EDT Latitude Longitude Course Direction KTS MPH feet Rate Location/Type
Fri 03:21:51 AM 33.9333 -118.4333 47° Northeast 190 219 1,300  Level Southern California TRACON
Fri 03:22:58 AM 33.8892 -118.4933 228° Southwest 204 235 2,600 1,228 Climbing Los Angeles Center
Fri 03:23:58 AM 33.8333 -118.5211 202° Southwest 255 293 3,900 1,785 Climbing Los Angeles Center
Fri 03:24:00 AM 34.1185 -117.9999 62° Northeast  Level Estimated
Fri 03:24:59 AM 33.7453 -118.5211 180° South 266 306 6,200  Level Los Angeles Center
Fri 03:25:00 AM 34.1768 -117.8634 63° Northeast  Level Estimated
Fri 03:26:00 AM 34.2351 -117.7268 51° Northeast  Level Estimated
Fri 03:26:00 AM 33.6844 -118.4822 152° Southeast 282 325 8,100  Level Los Angeles Center
Fri 03:27:00 AM 34.2931 -117.5900 47° Northeast  Level Estimated
Fri 03:27:00 AM 33.6586 -118.3939 109° East 286 329 10,300  Level Los Angeles Center
Fri 03:28:01 AM 33.6497 -118.2922 96° East 322 371 11,600 1,686 Climbing Los Angeles Center
Fri 03:29:01 AM 33.7022 -118.1969 56° Northeast 349 402 13,700 2,182 Climbing Los Angeles Center
Fri 03:30:02 AM 33.7589 -118.0975 56° Northeast 362 417 16,000 1,918 Climbing Los Angeles Center
Fri 03:31:03 AM 33.8336 -118.0078 45° Northeast 386 444 17,600 1,686 Climbing Los Angeles Center
Fri 03:32:03 AM 33.9236 -117.9283 36° Northeast 402 463 19,400 1,934 Climbing Los Angeles Center
Fri 03:33:04 AM 34.0169 -117.8444 37° Northeast 417 480 21,500 2,182 Climbing Los Angeles Center
Fri 03:34:04 AM 34.1253 -117.7353 40° Northeast 421 484 23,800 1,884 Climbing Los Angeles Center
Fri 03:35:05 AM 34.1908 -117.6128 57° Northeast 433 498 25,300 1,388 Climbing Los Angeles Center
Fri 03:36:05 AM 34.2547 -117.4847 59° Northeast 442 509 26,600 1,227 Climbing Los Angeles Center
Fri 03:38:06 AM 34.3914 -117.2169 58° Northeast 469 540 29,000 1,187 Climbing Los Angeles Center
Fri 03:39:07 AM 34.4622 -117.0736 59° Northeast 480 552 30,200 1,041 Climbing Los Angeles Center
Fri 03:40:07 AM 34.5314 -116.9356 59° Northeast 481 554 31,100 1,041 Climbing Los Angeles Center
Fri 03:41:08 AM 34.6025 -116.7928 59° Northeast 494 568 32,300 1,190 Climbing Los Angeles Center
Fri 03:42:08 AM 34.6731 -116.6503 59° Northeast 494 568 33,500 1,041 Climbing Los Angeles Center
Fri 03:43:09 AM 34.7439 -116.5069 59° Northeast 494 568 34,400 992 Climbing Los Angeles Center
Fri 03:44:09 AM 34.8158 -116.3631 59° Northeast 497 572 35,500 1,041 Climbing Los Angeles Center
Fri 03:45:10 AM 34.8856 -116.2211 59° Northeast 496 571 36,500 744 Climbing Los Angeles Center
Fri 03:46:10 AM 34.9547 -116.0806 59° Northeast 489 563 37,000 248 Climbing Los Angeles Center
Fri 03:47:11 AM 35.0250 -115.9383 59° Northeast 490 564 37,000  Level Los Angeles Center
Fri 03:48:11 AM 35.0936 -115.7956 60° Northeast 491 565 37,000  Level Los Angeles Center
Fri 03:49:12 AM 35.1633 -115.6531 59° Northeast 491 565 37,000  Level Los Angeles Center
Fri 03:50:12 AM 35.2347 -115.5019 60° Northeast 491 565 37,000  Level Los Angeles Center
Fri 03:51:13 AM 35.3044 -115.3572 59° Northeast 492 566 37,000  Level Los Angeles Center
Fri 03:52:13 AM 35.3733 -115.2164 59° Northeast 488 562 37,000  Level Los Angeles Center
Fri 03:53:14 AM 35.4425 -115.0717 60° Northeast 496 571 37,000  Level Los Angeles Center
Fri 03:54:14 AM 35.5114 -114.9286 59° Northeast 490 564 37,000  Level Los Angeles Center
Fri 03:55:15 AM 35.5761 -114.7869 61° Northeast 482 555 37,000  Level Los Angeles Center
Fri 03:56:15 AM 35.6461 -114.6408 59° Northeast 493 567 37,000  Level Los Angeles Center
Fri 03:57:16 AM 35.7147 -114.4958 60° Northeast 493 567 37,000  Level Los Angeles Center
Fri 03:58:16 AM 35.7822 -114.3492 60° Northeast 493 567 37,000  Level Los Angeles Center
Fri 03:59:17 AM 35.8650 -114.1717 60° Northeast 497 572 37,000  Level Los Angeles Center
Fri 04:00:18 AM 35.9342 -114.0228 60° Northeast 500 575 37,000  Level Los Angeles Center
Fri 04:01:18 AM 36.0039 -113.8739 60° Northeast 500 575 37,000  Level Los Angeles Center
Fri 04:02:18 AM 36.0719 -113.7228 61° Northeast 502 578 37,000  Level Los Angeles Center
Fri 04:03:19 AM 36.1403 -113.5733 60° Northeast 502 578 37,000  Level Los Angeles Center
Fri 04:04:19 AM 36.2094 -113.4225 60° Northeast 502 578 37,000  Level Los Angeles Center
Fri 04:05:20 AM 36.2775 -113.2711 61° Northeast 503 579 37,000  Level Los Angeles Center
Fri 04:06:20 AM 36.3439 -113.1244 61° Northeast 503 579 37,000  Level Los Angeles Center
Fri 04:07:21 AM 36.4119 -112.9744 61° Northeast 502 578 37,000  Level Los Angeles Center
Fri 04:08:21 AM 36.4783 -112.8222 61° Northeast 502 578 37,000  Level Los Angeles Center
Fri 04:09:21 AM 36.5456 -112.6725 61° Northeast 502 578 37,000  Level Los Angeles Center
Fri 04:10:22 AM 36.6128 -112.5211 61° Northeast 502 578 37,000  Level Los Angeles Center
Fri 04:11:22 AM 36.6786 -112.3703 61° Northeast 502 578 37,000  Level Los Angeles Center
Fri 04:12:23 AM 36.7453 -112.2183 61° Northeast 502 578 37,000  Level Los Angeles Center
Fri 04:13:23 AM 36.8119 -112.0669 61° Northeast 502 578 37,000  Level Los Angeles Center
Fri 04:14:23 AM 36.8789 -111.9128 61° Northeast 503 579 37,000  Level Los Angeles Center
Fri 04:15:24 AM 36.9447 -111.7589 62° Northeast 503 579 37,000  Level Los Angeles Center
Fri 04:16:26 AM 37.0258 -111.5728 61° Northeast 506 582 37,000  Level Denver Center
Fri 04:17:26 AM 37.0939 -111.4192 61° Northeast 506 582 37,000  Level Denver Center
Fri 04:18:27 AM 37.1608 -111.2642 62° Northeast 507 583 37,000  Level Denver Center
Fri 04:19:28 AM 37.2250 -111.1097 62° Northeast 507 583 37,000  Level Denver Center
Fri 04:20:28 AM 37.2886 -110.9539 63° Northeast 505 581 37,000  Level Denver Center
Fri 04:21:29 AM 37.3547 -110.7981 62° Northeast 505 581 37,000  Level Denver Center
Fri 04:22:30 AM 37.4186 -110.6419 63° Northeast 505 581 37,000  Level Denver Center
Fri 04:23:30 AM 37.4811 -110.4922 62° Northeast 506 582 37,000  Level Denver Center
Fri 04:24:31 AM 37.5539 -110.3169 62° Northeast 506 582 37,000  Level Denver Center
Fri 04:25:31 AM 37.6161 -110.1667 62° Northeast 506 582 37,000  Level Denver Center
Fri 04:26:32 AM 37.6778 -110.0142 63° Northeast 505 581 37,000  Level Denver Center
Fri 04:27:33 AM 37.7492 -109.8386 63° Northeast 506 582 37,000  Level Denver Center
Fri 04:28:33 AM 37.8106 -109.6886 63° Northeast 504 580 37,000  Level Denver Center
Fri 04:29:34 AM 37.8703 -109.5386 63° Northeast 503 579 37,000  Level Denver Center
Fri 04:30:34 AM 37.9411 -109.3622 63° Northeast 502 578 37,000  Level Denver Center
Fri 04:31:35 AM 38.0011 -109.2114 63° Northeast 502 578 37,000  Level Denver Center
Fri 04:32:35 AM 38.0608 -109.0597 63° Northeast 502 578 37,000  Level Denver Center
Fri 04:33:36 AM 38.1214 -108.9072 63° Northeast 502 578 37,000  Level Denver Center
Fri 04:34:36 AM 38.1914 -108.7292 63° Northeast 502 578 37,000  Level Denver Center
Fri 04:35:37 AM 38.2506 -108.5742 64° Northeast 503 579 37,000  Level Denver Center
Fri 04:36:37 AM 38.3086 -108.4228 64° Northeast 503 579 37,000  Level Denver Center
Fri 04:37:38 AM 38.3789 -108.2475 63° Northeast 498 573 37,000  Level Denver Center
Fri 04:38:39 AM 38.4386 -108.0900 64° Northeast 497 572 37,000  Level Denver Center
Fri 04:39:39 AM 38.4978 -107.9353 64° Northeast 493 567 37,000  Level Denver Center
Fri 04:40:39 AM 38.5572 -107.7789 64° Northeast 491 565 37,000  Level Denver Center
Fri 04:41:40 AM 38.6169 -107.6217 64° Northeast 491 565 37,000  Level Denver Center
Fri 04:42:40 AM 38.6686 -107.4856 64° Northeast 491 565 37,000  Level Denver Center
Fri 04:43:40 AM 38.7267 -107.3297 64° Northeast 490 564 37,000  Level Denver Center
Fri 04:44:41 AM 38.7853 -107.1736 64° Northeast 490 564 37,000  Level Denver Center
Fri 04:45:41 AM 38.8428 -107.0169 65° Northeast 490 564 37,000  Level Denver Center
Fri 04:46:42 AM 38.9003 -106.8594 65° Northeast 490 564 37,000  Level Denver Center
Fri 04:47:42 AM 38.9697 -106.6717 65° Northeast 490 564 37,000  Level Denver Center
Fri 04:48:43 AM 39.0269 -106.5122 65° Northeast 491 565 37,000  Level Denver Center
Fri 04:49:43 AM 39.0847 -106.3561 64° Northeast 491 565 37,000  Level Denver Center
Fri 04:50:43 AM 39.1417 -106.1978 65° Northeast 491 565 37,000  Level Denver Center
Fri 04:51:44 AM 39.2019 -106.0292 65° Northeast 491 565 37,000  Level Denver Center
Fri 04:52:44 AM 39.2586 -105.8728 65° Northeast 485 558 37,000  Level Denver Center
Fri 04:53:44 AM 39.3144 -105.7158 65° Northeast 482 555 37,000  Level Denver Center
Fri 04:54:45 AM 39.3706 -105.5589 65° Northeast 481 554 37,000  Level Denver Center
Fri 04:55:45 AM 39.4267 -105.4006 65° Northeast 484 557 37,000  Level Denver Center
Fri 04:56:46 AM 39.4811 -105.2428 66° East 483 556 37,000  Level Denver Center
Fri 04:57:46 AM 39.5367 -105.0836 66° East 483 556 37,000  Level Denver Center
Fri 04:58:46 AM 39.5917 -104.9244 66° East 483 556 37,000  Level Denver Center
Fri 04:59:47 AM 39.6503 -104.7628 65° Northeast 483 556 37,000  Level Denver Center
Fri 05:00:47 AM 39.6950 -104.6264 67° East 490 564 37,000  Level Denver Center
Fri 05:01:47 AM 39.7483 -104.4653 67° East 486 559 37,000  Level Denver Center
Fri 05:02:48 AM 39.8014 -104.3072 66° East 482 555 37,000  Level Denver Center
Fri 05:03:48 AM 39.8542 -104.1494 66° East 476 548 37,000  Level Denver Center
Fri 05:04:48 AM 39.9072 -103.9922 66° East 476 548 37,000  Level Denver Center
Fri 05:05:49 AM 39.9586 -103.8328 67° East 476 548 37,000  Level Denver Center
Fri 05:06:49 AM 40.0119 -103.6781 66° East 474 545 37,000  Level Denver Center
Fri 05:07:49 AM 40.0731 -103.4886 67° East 473 544 37,000  Level Denver Center
Fri 05:08:49 AM 40.1119 -103.3247 73° East 473 544 37,000  Level Denver Center
Fri 05:09:50 AM 40.1508 -103.1586 73° East 478 550 37,000  Level Denver Center
Fri 05:10:50 AM 40.1881 -102.9925 74° East 478 550 37,000  Level Denver Center
Fri 05:11:50 AM 40.2244 -102.8250 74° East 478 550 37,000  Level Denver Center
Fri 05:12:51 AM 40.2603 -102.6761 72° East 476 548 37,000  Level Denver Center
Fri 05:13:51 AM 40.3000 -102.4917 74° East 476 548 37,000  Level Denver Center
Fri 05:14:51 AM 40.3356 -102.3336 74° East 475 547 37,000  Level Denver Center
Fri 05:15:51 AM 40.3703 -102.1775 74° East 470 541 37,000  Level Denver Center
Fri 05:16:52 AM 40.4047 -102.0200 74° East 470 541 37,000  Level Denver Center
Fri 05:17:52 AM 40.4428 -101.8358 75° East 468 539 37,000  Level Denver Center
Fri 05:18:52 AM 40.4508 -101.6719 86° East 469 540 37,000  Level Denver Center
Fri 05:19:52 AM 40.4567 -101.5067 87° East 474 545 37,000  Level Denver Center
Fri 05:20:53 AM 40.4647 -101.3156 87° East 472 543 37,000  Level Denver Center
Fri 05:21:53 AM 40.4672 -101.1525 89° East 472 543 37,000  Level Denver Center
Fri 05:22:53 AM 40.4681 -100.9903 90° East 471 542 37,000  Level Denver Center
Fri 05:23:53 AM 40.4681 -100.8019 90° East 470 541 37,000  Level Denver Center
Fri 05:24:54 AM 40.4694 -100.6406 89° East 469 540 37,000  Level Denver Center
Fri 05:25:54 AM 40.4719 -100.4792 89° East 468 539 37,000  Level Denver Center
Fri 05:26:54 AM 40.4939 -100.2925 81° East 467 537 37,000  Level Denver Center
Fri 05:27:55 AM 40.5314 -100.1397 72° East 463 533 37,000  Level Denver Center
Fri 05:28:55 AM 40.5653 -99.9856 74° East 461 531 37,000  Level Denver Center
Fri 05:29:55 AM 40.6042 -99.8108 74° East 460 529 37,000  Level Denver Center
Fri 05:30:55 AM 40.6400 -99.6511 73° East 457 526 37,000  Level Denver Center
Fri 05:31:53 AM 40.6675 -99.5244 74° East 459 528 37,000  Level Minneapolis Center
Fri 05:32:56 AM 40.7094 -99.3306 74° East 457 526 37,000  Level Denver Center
Fri 05:33:56 AM 40.7439 -99.1697 74° East 457 526 37,000  Level Denver Center
Fri 05:34:56 AM 40.7772 -99.0081 75° East 465 535 37,000 200 Level Denver Center
Fri 05:35:56 AM 40.8114 -98.8467 74° East 474 545 37,400 595 Climbing Denver Center
Fri 05:36:57 AM 40.8489 -98.6697 74° East 475 547 38,200 793 Climbing Denver Center
Fri 05:37:57 AM 40.8847 -98.5025 74° East 476 548 39,000 400 Climbing Denver Center
Fri 05:38:57 AM 40.9194 -98.3378 74° East 477 549 39,000  Level Minneapolis Center
Fri 05:39:57 AM 40.9531 -98.1719 75° East 475 547 39,000  Level Minneapolis Center
Fri 05:40:58 AM 40.9872 -98.0069 75° East 472 543 39,000  Level Minneapolis Center
Fri 05:41:58 AM 41.0208 -97.8400 75° East 470 541 39,000  Level Minneapolis Center
Fri 05:42:59 AM 41.0547 -97.6736 75° East 471 542 39,000  Level Minneapolis Center
Fri 05:43:59 AM 41.0875 -97.5078 75° East 470 541 39,000  Level Minneapolis Center
Fri 05:45:00 AM 41.1231 -97.3300 75° East 469 540 39,000  Level Minneapolis Center
Fri 05:46:00 AM 41.1550 -97.1650 76° East 467 537 39,000  Level Minneapolis Center
Fri 05:47:01 AM 41.1883 -96.9975 75° East 467 537 39,000  Level Minneapolis Center
Fri 05:48:01 AM 41.2186 -96.8325 76° East 466 536 39,000  Level Minneapolis Center
Fri 05:49:01 AM 41.2514 -96.6667 75° East 466 536 39,000  Level Minneapolis Center
Fri 05:50:02 AM 41.2844 -96.4992 75° East 467 537 39,000  Level Minneapolis Center
Fri 05:51:02 AM 41.3164 -96.3256 76° East 468 539 39,000  Level Minneapolis Center
Fri 05:52:03 AM 41.3442 -96.1781 76° East 466 536 39,000  Level Minneapolis Center
Fri 05:53:03 AM 41.3736 -96.0122 77° East 464 534 39,000  Level Minneapolis Center
Fri 05:54:03 AM 41.4058 -95.8469 75° East 463 533 39,000  Level Minneapolis Center
Fri 05:55:04 AM 41.4353 -95.6814 77° East 459 528 39,000  Level Minneapolis Center
Fri 05:56:04 AM 41.4692 -95.4886 77° East 459 528 39,000  Level Minneapolis Center
Fri 05:57:04 AM 41.4992 -95.3233 76° East 459 528 39,000  Level Minneapolis Center
Fri 05:58:05 AM 41.5281 -95.1567 77° East 461 531 39,000  Level Minneapolis Center
Fri 05:59:05 AM 41.5572 -94.9872 77° East 462 532 39,000  Level Minneapolis Center
Fri 06:00:05 AM 41.5869 -94.8197 77° East 462 532 39,000  Level Minneapolis Center
Fri 06:01:06 AM 41.6150 -94.6506 77° East 463 533 39,000  Level Minneapolis Center
Fri 06:02:06 AM 41.6444 -94.4817 77° East 465 535 39,000  Level Minneapolis Center
Fri 06:03:07 AM 41.6733 -94.3139 77° East 465 535 39,000  Level Minneapolis Center
Fri 06:04:07 AM 41.7017 -94.1456 77° East 465 535 39,000  Level Minneapolis Center
Fri 06:05:07 AM 41.7289 -93.9789 78° East 462 532 39,000  Level Minneapolis Center
Fri 06:06:08 AM 41.7561 -93.8044 78° East 461 531 39,000  Level Minneapolis Center
Fri 06:07:08 AM 41.7803 -93.6386 79° East 460 529 39,000  Level Minneapolis Center
Fri 06:08:08 AM 41.8050 -93.4731 79° East 459 528 39,000  Level Minneapolis Center
Fri 06:09:09 AM 41.8303 -93.3033 79° East 459 528 39,000  Level Minneapolis Center
Fri 06:10:09 AM 41.8558 -93.1347 78° East 460 529 39,000  Level Minneapolis Center
Fri 06:11:10 AM 41.8800 -92.9675 79° East 460 529 39,000  Level Minneapolis Center
Fri 06:12:10 AM 41.9042 -92.8003 79° East 460 529 39,000  Level Minneapolis Center
Fri 06:13:10 AM 41.9308 -92.6233 78° East 460 529 39,000  Level Minneapolis Center
Fri 06:14:20 AM 41.9536 -92.4556 80° East 458 527 39,000  Level Chicago Center
Fri 06:15:21 AM 41.9808 -92.2553 80° East 458 527 39,000  Level Chicago Center
Fri 06:16:21 AM 42.0036 -92.0883 80° East 461 531 39,000  Level Chicago Center
Fri 06:17:22 AM 42.0267 -91.9208 79° East 461 531 39,000  Level Chicago Center
Fri 06:18:22 AM 42.0497 -91.7519 80° East 461 531 39,000  Level Chicago Center
Fri 06:19:22 AM 42.0711 -91.5814 80° East 465 535 39,000  Level Chicago Center
Fri 06:20:23 AM 42.0939 -91.4108 80° East 467 537 39,000  Level Chicago Center
Fri 06:21:23 AM 42.1158 -91.2411 80° East 469 540 39,000  Level Chicago Center
Fri 06:22:23 AM 42.1378 -91.0717 80° East 469 540 39,000  Level Chicago Center
Fri 06:23:24 AM 42.1581 -90.9058 81° East 461 531 39,000  Level Chicago Center
Fri 06:24:24 AM 42.1794 -90.7347 80° East 463 533 39,000 -149 Level Chicago Center
Fri 06:25:25 AM 42.2006 -90.5617 81° East 470 541 38,700 -595 Descending Chicago Center
Fri 06:26:25 AM 42.2203 -90.3892 81° East 471 542 37,800 -2,050 Descending Chicago Center
Fri 06:27:25 AM 42.2461 -90.1817 80° East 471 542 34,600 -3,174 Descending Chicago Center
Fri 06:28:26 AM 42.2667 -90.0067 81° East 473 544 31,400 -2,926 Descending Chicago Center
Fri 06:29:26 AM 42.2869 -89.8347 81° East 476 548 28,700 -2,579 Descending Chicago Center
Fri 06:30:27 AM 42.3075 -89.6631 81° East 468 539 26,200 -2,479 Descending Chicago Center
Fri 06:31:27 AM 42.3261 -89.4972 81° East 449 517 23,700 -2,380 Descending Chicago Center
Fri 06:32:28 AM 42.3439 -89.3350 82° East 445 512 21,400 -2,231 Descending Chicago Center
Fri 06:33:28 AM 42.3617 -89.1772 81° East 434 499 19,200 -2,083 Descending Chicago Center
Fri 06:34:29 AM 42.3789 -89.0236 81° East 422 486 17,200 -2,132 Descending Chicago Center
Fri 06:35:29 AM 42.3947 -88.8775 82° East 404 465 14,900 -2,182 Descending Chicago Center
Fri 06:36:30 AM 42.4097 -88.7353 82° East 391 450 12,800 -1,983 Descending Chicago Center
Fri 06:37:30 AM 42.4058 -88.5994 92° East 377 434 10,900 -1,388 Descending Chicago Center
Fri 06:38:31 AM 42.3675 -88.4747 113° Southeast 362 417 10,000 -446 Descending Chicago Center
Fri 06:39:31 AM 42.3114 -88.3383 119° Southeast 370 426 10,000  Level Chicago Center
Fri 06:40:32 AM 42.2483 -88.2336 129° Southeast 362 417 10,000 -99 Level Chicago Center
Fri 06:41:32 AM 42.1892 -88.1383 130° Southeast 330 380 9,800 -800 Descending Chicago Center
Fri 06:42:32 AM 42.1269 -88.0681 140° Southeast 295 339 8,400 -1,240 Descending Chicago Center
Fri 06:43:33 AM 42.0897 -87.9764 119° Southeast 291 335 7,300 -694 Descending Chicago Center
Fri 06:44:33 AM 42.0911 -87.8803 89° East 261 300 7,000 -347 Descending Chicago Center
Fri 06:45:34 AM 42.0917 -87.7914 89° East 243 280 6,600 -942 Descending Chicago Center
Fri 06:46:34 AM 42.0861 -87.7044 95° East 242 278 5,100 -1,537 Descending Chicago Center
Fri 06:47:35 AM 42.0253 -87.6803 164° South 241 277 3,500 -1,091 Descending Chicago Center
Fri 06:48:35 AM 41.9875 -87.7372 228° Southwest 198 228 2,900 -744 Descending Chicago Center
Fri 06:49:36 AM 41.9839 -87.8008 266° West 179 206 2,000 -843 Descending Chicago Center
Fri 06:50:36 AM 41.9836 -87.8514 270° West 141 162 1,200 -595 Descending Chicago Center
Fri 06:51:37 AM 41.9844 -87.8975 271° West 135 155 800 -393 Descending Chicago Center

Login

Don't have an account? Register now (free) for customized features, flight alerts, and more!